CYVRCYWL [345]

Guest
Details From CYVR - Vancouver Intl
To CYWL - Williams Lake
Flight Number 345
Tags Real Commercial Decoded
Created
Modified
Stats Distance 184 nm / 341 km
Max Altitude 0 ft / 0 m
Waypoints 2
Social Downloads 7
Likes 0
Share VATSIM

Download

Looking for another format? Having issues loading an existing format? Contact us
Advertisement - Login to hide

Notes

Decoded

Route

CYVR CYWL

ID Type Via Altitude Latitude Longitude Leg Dist Tot Dist Heading (true) Name
O CYVR APT - 0 ft / 0 m 49.20509˚ -123.20131˚ - 0 nm - -
O CYWL APT - 0 ft / 0 m 52.18917˚ -122.06445˚ 184 nm 184 nm 13° / 14° -

Altitude Profile

Advertisement - Login to hide

Weather


0- 5 10 15 20 25 30 35+ Temperature / ° C

Clouds and Precipitation
Forecast for 2017-12-18 18:00 UTC. Updated an hour ago

Ground ~20,000 ft ~40,000 ft Winds

CYVR

Details ICAO CYVR (YVR)
Name Vancouver Intl
Region Canada
Timezone America/Vancouver (UTC-8.0)
Stats Elevation 14 ft / 4 m (AMSL)
Location 49.192331° -123.187993°
Runways 4
Magnetic Variation 16.264° E

METAR

CYVR 181416Z 28020G28KT 15SM FEW006 BKN065 OVC180 06/05 A2998 RMK SF2SC4AC2 PRESRR SLP154

Decode

TAF

TAF AMD CYVR 181146Z 1812/1918 29020KT P6SM FEW002 SCT005 OVC040 TEMPO 1812/1814 4SM -DZ BR SCT002 BKN006 FM181400 28015KT P6SM BKN009 TEMPO 1814/1816 BKN040 FM181600 28015KT P6SM BKN060 FM190200 27005KT P6SM -SHRA SCT020 BKN040 FM190600 09008KT 5SM -SHRA BR BKN020 RMK NXT FCST BY 181500Z

Decode

Departure Runways

ID Width Length Bearing (true) Bearing (mag) Surface Threshold Offset Overrun Length
08 75 ft / 23 m 3,497 ft / 1,066 m 100.01° 83.75° Concrete 0 ft / 0 m 0 ft / 0 m
08L 200 ft / 61 m 9,910 ft / 3,021 m 99.80° 83.54° Concrete 0 ft / 0 m 0 ft / 0 m
08R 200 ft / 61 m 11,491 ft / 3,502 m 99.94° 83.68° Asphalt 0 ft / 0 m 0 ft / 0 m
12 200 ft / 61 m 7,291 ft / 2,222 m 141.91° 125.65° Asphalt 0 ft / 0 m 0 ft / 0 m
26 75 ft / 23 m 3,497 ft / 1,066 m 280.02° 263.76° Concrete 0 ft / 0 m 0 ft / 0 m
26L 200 ft / 61 m 11,491 ft / 3,502 m 279.97° 263.71° Asphalt 0 ft / 0 m 0 ft / 0 m
26R 200 ft / 61 m 9,910 ft / 3,021 m 279.83° 263.57° Concrete 0 ft / 0 m 0 ft / 0 m
30 200 ft / 61 m 7,291 ft / 2,222 m 321.93° 305.67° Asphalt 0 ft / 0 m 0 ft / 0 m

CYWL

Details ICAO CYWL (YWL)
Name WILLIAMS LAKE
Region Canada
Timezone America/Vancouver (UTC-8.0)
Stats Elevation 3,085 ft / 940 m (AMSL)
Location 52.182502° -122.053475°
Runways 1
Magnetic Variation 16.805° E

METAR

CYWL 181432Z 11005KT 2SM BR FEW003 FEW130 M10/M11 A2986 RMK SF1AC1 AC TR SLP164

Decode

TAF

TAF CYWL 181238Z 1813/1901 VRB03KT P6SM FEW130 PROB30 1813/1819 1SM BR BKN002 RMK NXT FCST BY 181900Z

Decode

Destination Runways

ID Width Length Bearing (true) Bearing (mag) Surface Threshold Offset Overrun Length
11 150 ft / 46 m 6,913 ft / 2,107 m 134.72° 117.92° Asphalt 0 ft / 0 m 300 ft / 91 m
29 150 ft / 46 m 6,913 ft / 2,107 m 314.74° 297.94° Asphalt 0 ft / 0 m 300 ft / 91 m

Popular Alternatives